Time;durP1;ratioP1;P1;durP2;ratioP2;P2;SDS_P1;SDS_P2;PMS_P1;PMS_P2;Temp;Humidity;BMP_temperature;BMP_pressure;BME280_temperature;BME280_humidity;BME280_pressure;Samples;Min_cycle;Max_cycle;Signal;HPM_P1;HPM_P2
2024/03/11 00:00:15;;;;;;;38.13;20.50;;;10.20;72.40;;;;;;9176751;19;20031;-68
2024/03/11 00:03:23;;;;;;;37.67;19.92;;;10.20;72.50;;;;;;9176873;19;20011;-67
2024/03/11 00:06:29;;;;;;;37.55;20.23;;;10.20;72.50;;;;;;9174552;19;20122;-68
2024/03/11 00:09:44;;;;;;;39.13;20.50;;;10.10;72.50;;;;;;9174278;19;20364;-67
2024/03/11 00:12:53;;;;;;;38.30;20.58;;;10.10;72.60;;;;;;9177282;19;20014;-69
2024/03/11 00:16:02;;;;;;;40.28;20.83;;;10.10;72.60;;;;;;9177199;19;20025;-68
2024/03/11 00:19:08;;;;;;;43.97;22.65;;;10.10;72.70;;;;;;9176313;19;20047;-68
2024/03/11 00:22:15;;;;;;;38.30;20.30;;;10.00;72.60;;;;;;9176304;19;20015;-69
2024/03/11 00:25:24;;;;;;;41.53;20.98;;;10.00;72.60;;;;;;9176564;19;20022;-68
2024/03/11 00:28:33;;;;;;;39.42;20.55;;;10.00;72.70;;;;;;9174611;19;20370;-68
2024/03/11 00:31:38;;;;;;;38.65;20.77;;;10.00;72.70;;;;;;9175462;19;20025;-68
2024/03/11 00:34:46;;;;;;;41.00;21.40;;;10.00;72.70;;;;;;9175850;19;20019;-69
2024/03/11 00:37:51;;;;;;;38.40;21.00;;;10.00;72.70;;;;;;9173850;19;20019;-68
2024/03/11 00:41:01;;;;;;;40.15;20.40;;;10.00;73.40;;;;;;9175501;19;20021;-68
2024/03/11 00:44:07;;;;;;;35.40;19.92;;;10.00;72.80;;;;;;9176262;19;20025;-68
2024/03/11 00:47:15;;;;;;;39.70;20.65;;;10.00;72.90;;;;;;9175510;19;20375;-67
2024/03/11 00:50:20;;;;;;;38.88;20.20;;;10.00;72.90;;;;;;9173280;19;20021;-68
2024/03/11 00:53:28;;;;;;;39.60;20.60;;;10.00;72.90;;;;;;9175357;19;20022;-68
2024/03/11 00:56:36;;;;;;;46.33;22.10;;;9.90;72.90;;;;;;9168881;19;20368;-69
2024/03/11 00:59:44;;;;;;;38.40;19.98;;;9.90;72.90;;;;;;9174613;19;20014;-68
2024/03/11 01:02:51;;;;;;;36.47;20.23;;;9.90;72.90;;;;;;9175036;19;20014;-69
2024/03/11 01:06:00;;;;;;;35.35;20.33;;;9.90;73.00;;;;;;9174947;19;20025;-68
2024/03/11 01:09:07;;;;;;;34.72;20.13;;;9.90;73.00;;;;;;9173382;19;20017;-69
2024/03/11 01:12:17;;;;;;;38.70;20.83;;;9.90;73.10;;;;;;9174689;19;20014;-68
2024/03/11 01:15:28;;;;;;;40.65;19.73;;;9.90;73.10;;;;;;9175057;19;20019;-69
2024/03/11 01:18:36;;;;;;;42.40;19.70;;;9.90;73.10;;;;;;9174496;19;20030;-69
2024/03/11 01:21:41;;;;;;;35.25;19.48;;;9.90;73.10;;;;;;9173425;19;20021;-66
2024/03/11 01:24:49;;;;;;;34.63;19.38;;;9.90;73.10;;;;;;9174810;19;20019;-69
2024/03/11 01:27:57;;;;;;;41.38;19.55;;;9.90;73.20;;;;;;9174161;19;20045;-68
2024/03/11 01:31:05;;;;;;;34.92;20.25;;;9.90;73.20;;;;;;9170844;19;20483;-69
2024/03/11 01:34:11;;;;;;;40.30;19.15;;;9.90;73.30;;;;;;9172726;19;20026;-69
2024/03/11 01:37:20;;;;;;;38.58;18.90;;;9.90;73.20;;;;;;9173291;19;20026;-68
2024/03/11 01:40:27;;;;;;;35.95;18.83;;;9.90;73.20;;;;;;9174343;19;20411;-69
2024/03/11 01:43:38;;;;;;;33.22;18.75;;;9.90;73.20;;;;;;9172051;19;20021;-68
2024/03/11 01:46:46;;;;;;;38.47;19.33;;;9.90;73.30;;;;;;9172433;19;20010;-68
2024/03/11 01:49:59;;;;;;;34.65;17.60;;;9.90;73.30;;;;;;9172153;19;20028;-68
2024/03/11 01:53:06;;;;;;;43.83;19.73;;;9.90;73.30;;;;;;9173180;19;20018;-68
2024/03/11 01:56:13;;;;;;;35.92;18.77;;;9.90;73.30;;;;;;9169328;19;20405;-68
2024/03/11 01:59:22;;;;;;;35.92;18.65;;;9.90;73.30;;;;;;9173289;19;20021;-68
2024/03/11 02:02:30;;;;;;;38.67;18.75;;;9.90;73.40;;;;;;9173698;19;20019;-68
2024/03/11 02:05:40;;;;;;;35.22;19.27;;;9.90;73.40;;;;;;9172807;19;20014;-68
2024/03/11 02:08:49;;;;;;;36.00;18.95;;;9.90;73.40;;;;;;9179879;19;20011;-68
2024/03/11 02:11:54;;;;;;;36.08;19.00;;;9.90;73.40;;;;;;9182001;19;20452;-68
2024/03/11 02:15:05;;;;;;;32.30;17.90;;;9.90;73.50;;;;;;9181784;19;20615;-69
2024/03/11 02:18:11;;;;;;;36.88;18.70;;;9.90;73.40;;;;;;9180692;19;20022;-68
2024/03/11 02:21:19;;;;;;;35.15;18.23;;;9.90;73.40;;;;;;9181170;19;20022;-67
2024/03/11 02:24:28;;;;;;;35.42;18.38;;;9.90;73.40;;;;;;9181798;19;20014;-69
2024/03/11 02:27:35;;;;;;;34.28;18.13;;;9.90;73.40;;;;;;9183004;19;20026;-69
2024/03/11 02:30:42;;;;;;;37.72;18.85;;;9.90;73.50;;;;;;9177891;19;20019;-68
2024/03/11 02:33:50;;;;;;;35.25;18.13;;;9.90;73.50;;;;;;9179777;19;20022;-69
2024/03/11 02:36:55;;;;;;;36.95;19.63;;;9.90;73.50;;;;;;9179659;19;20011;-68
2024/03/11 02:40:08;;;;;;;37.97;19.05;;;9.90;73.50;;;;;;9180901;19;20021;-69
2024/03/11 02:43:16;;;;;;;36.13;18.20;;;9.90;73.50;;;;;;9179344;19;20014;-69
2024/03/11 02:46:24;;;;;;;36.53;18.48;;;9.90;73.50;;;;;;9180471;19;20046;-68
2024/03/11 02:49:30;;;;;;;36.95;19.17;;;9.90;73.50;;;;;;9178176;19;20042;-69
2024/03/11 02:52:38;;;;;;;38.95;18.92;;;9.90;74.00;;;;;;9179977;19;20721;-67
2024/03/11 02:55:46;;;;;;;39.70;20.08;;;9.90;73.60;;;;;;9180604;19;20010;-69
2024/03/11 02:58:54;;;;;;;35.42;18.35;;;9.90;73.70;;;;;;9175692;19;20011;-68
2024/03/11 03:01:59;;;;;;;34.58;18.27;;;9.90;73.60;;;;;;9178939;19;20007;-68
2024/03/11 03:05:08;;;;;;;35.50;18.95;;;9.80;73.60;;;;;;9179848;19;20029;-68
2024/03/11 03:08:14;;;;;;;37.78;19.20;;;9.80;73.60;;;;;;9179623;19;20459;-68
2024/03/11 03:11:24;;;;;;;35.15;19.35;;;9.80;73.70;;;;;;9176920;19;20405;-68
2024/03/11 03:14:30;;;;;;;39.85;19.83;;;9.80;73.70;;;;;;9179879;19;20483;-67
2024/03/11 03:17:38;;;;;;;37.47;18.77;;;9.80;73.70;;;;;;9178616;19;20022;-68
2024/03/11 03:20:44;;;;;;;33.60;17.95;;;9.80;73.70;;;;;;9178438;19;20638;-68
2024/03/11 03:23:52;;;;;;;39.83;20.38;;;9.70;73.70;;;;;;9179064;19;20022;-68
2024/03/11 03:27:00;;;;;;;35.78;19.38;;;9.70;73.70;;;;;;9176621;19;20487;-69
2024/03/11 03:30:09;;;;;;;43.70;19.63;;;9.70;74.40;;;;;;9176554;19;20015;-69
2024/03/11 03:33:15;;;;;;;36.83;18.15;;;9.70;73.90;;;;;;9177322;19;20433;-68
2024/03/11 03:36:23;;;;;;;40.25;20.35;;;9.70;73.80;;;;;;9178020;19;20707;-69
2024/03/11 03:39:28;;;;;;;38.33;20.15;;;9.70;73.90;;;;;;9178166;19;20388;-67
2024/03/11 03:42:38;;;;;;;40.88;20.13;;;9.70;73.90;;;;;;9176836;19;20050;-68
2024/03/11 03:45:44;;;;;;;34.72;17.70;;;9.70;74.00;;;;;;9178688;19;20074;-68
2024/03/11 03:48:52;;;;;;;44.83;20.02;;;9.60;73.80;;;;;;9177594;19;20475;-69
2024/03/11 03:51:57;;;;;;;40.35;19.85;;;9.60;73.90;;;;;;9175203;19;20075;-68
2024/03/11 03:55:05;;;;;;;39.42;19.35;;;9.60;74.00;;;;;;9177894;19;20066;-69
2024/03/11 03:58:14;;;;;;;38.22;18.63;;;9.60;74.00;;;;;;9172519;19;20134;-68
2024/03/11 04:01:23;;;;;;;44.17;20.95;;;9.60;74.10;;;;;;9177293;19;20019;-68
2024/03/11 04:04:29;;;;;;;44.88;19.10;;;9.60;74.10;;;;;;9176352;19;20484;-68
2024/03/11 04:07:38;;;;;;;41.95;20.35;;;9.50;74.10;;;;;;9177107;19;20037;-69
2024/03/11 04:10:44;;;;;;;41.72;20.20;;;9.60;74.20;;;;;;9176631;19;20026;-67
2024/03/11 04:13:54;;;;;;;39.00;20.85;;;9.50;74.20;;;;;;9176326;19;20109;-69
2024/03/11 04:16:59;;;;;;;43.60;19.65;;;9.60;74.30;;;;;;9175265;19;20050;-68
2024/03/11 04:20:11;;;;;;;38.28;19.75;;;9.50;74.20;;;;;;9176686;19;20022;-68
2024/03/11 04:23:17;;;;;;;38.80;20.00;;;9.60;74.30;;;;;;9174017;19;20014;-69
2024/03/11 04:26:25;;;;;;;41.05;21.70;;;9.60;74.30;;;;;;9176090;19;20916;-68
2024/03/11 04:29:33;;;;;;;41.05;20.33;;;9.50;74.30;;;;;;9175620;19;20044;-69
2024/03/11 04:32:43;;;;;;;44.75;20.67;;;9.60;74.50;;;;;;9174046;19;20018;-68
2024/03/11 04:35:49;;;;;;;39.35;20.20;;;9.50;74.50;;;;;;9175399;19;20349;-68
2024/03/11 04:38:57;;;;;;;46.60;22.02;;;9.50;74.50;;;;;;9174174;19;20018;-69
2024/03/11 04:42:03;;;;;;;40.45;21.00;;;9.50;74.50;;;;;;9175660;19;20027;-68
2024/03/11 04:45:14;;;;;;;42.95;21.55;;;9.50;74.60;;;;;;9174972;19;20019;-68
2024/03/11 04:48:19;;;;;;;43.10;21.40;;;9.50;74.70;;;;;;9175068;19;20014;-68
2024/03/11 04:51:28;;;;;;;44.08;22.67;;;9.50;74.70;;;;;;9174638;19;20032;-68
2024/03/11 04:54:34;;;;;;;45.97;22.73;;;9.50;74.70;;;;;;9175118;19;20018;-68
2024/03/11 04:57:41;;;;;;;45.97;22.60;;;9.40;74.70;;;;;;9171199;19;20105;-68
2024/03/11 05:00:50;;;;;;;46.63;23.92;;;9.40;74.70;;;;;;9175437;19;20018;-68
2024/03/11 05:03:58;;;;;;;44.15;21.80;;;9.40;74.80;;;;;;9174637;19;20014;-69
2024/03/11 05:07:05;;;;;;;49.08;24.10;;;9.30;74.80;;;;;;9174278;19;20395;-68
2024/03/11 05:10:14;;;;;;;47.50;22.30;;;9.40;74.80;;;;;;9174682;19;20033;-69
2024/03/11 05:13:19;;;;;;;53.42;24.10;;;9.40;74.90;;;;;;9174340;19;20018;-68
2024/03/11 05:16:30;;;;;;;43.80;22.23;;;9.40;74.90;;;;;;9172806;19;20015;-68
2024/03/11 05:19:35;;;;;;;46.75;22.80;;;9.40;75.00;;;;;;9172412;19;20014;-68
2024/03/11 05:22:46;;;;;;;49.78;24.05;;;9.40;74.90;;;;;;9171808;19;20360;-68
2024/03/11 05:25:51;;;;;;;50.83;23.48;;;9.40;75.00;;;;;;9173423;19;20018;-68
2024/03/11 05:28:59;;;;;;;47.67;23.10;;;9.40;75.00;;;;;;9171147;19;20034;-68
2024/03/11 05:32:08;;;;;;;51.42;23.77;;;9.40;75.00;;;;;;9172994;19;20425;-68
2024/03/11 05:35:16;;;;;;;43.72;22.95;;;9.40;75.00;;;;;;9173603;19;20011;-69
2024/03/11 05:38:27;;;;;;;47.35;23.38;;;9.40;75.00;;;;;;9171822;19;20432;-67
2024/03/11 05:41:35;;;;;;;49.88;24.23;;;9.40;75.10;;;;;;9173891;19;20033;-68
2024/03/11 05:44:41;;;;;;;46.25;22.02;;;9.30;75.00;;;;;;9183340;19;20047;-67
2024/03/11 05:47:51;;;;;;;53.45;24.27;;;9.30;75.00;;;;;;9181997;19;20023;-69
2024/03/11 05:51:01;;;;;;;45.88;22.33;;;9.30;75.10;;;;;;9180004;19;20011;-68
2024/03/11 05:54:15;;;;;;;47.35;22.77;;;9.30;75.10;;;;;;9182604;19;20058;-68
2024/03/11 05:57:25;;;;;;;47.28;23.25;;;9.30;75.10;;;;;;9177777;19;20046;-68
2024/03/11 06:00:33;;;;;;;47.22;21.85;;;9.30;75.10;;;;;;9182758;19;20476;-68
2024/03/11 06:03:44;;;;;;;46.78;23.05;;;9.30;75.10;;;;;;9182366;19;20024;-69
2024/03/11 06:06:52;;;;;;;46.40;23.00;;;9.30;75.20;;;;;;9183060;19;20049;-68
2024/03/11 06:09:58;;;;;;;40.85;21.88;;;9.30;75.20;;;;;;9181420;19;20011;-68
2024/03/11 06:13:06;;;;;;;54.70;24.45;;;9.30;75.20;;;;;;9181328;19;20029;-69
2024/03/11 06:16:12;;;;;;;43.42;22.35;;;9.30;75.50;;;;;;9180527;19;20026;-68
2024/03/11 06:19:23;;;;;;;49.78;22.25;;;9.30;75.20;;;;;;9181900;19;20023;-68
2024/03/11 06:22:28;;;;;;;49.63;23.05;;;9.30;75.30;;;;;;9182612;19;20393;-67
2024/03/11 06:25:36;;;;;;;45.20;21.60;;;9.30;75.20;;;;;;9183045;19;20025;-69
2024/03/11 06:28:41;;;;;;;46.53;22.60;;;9.30;75.30;;;;;;9182959;19;20021;-68
2024/03/11 06:31:49;;;;;;;46.72;22.60;;;9.30;75.30;;;;;;9182549;19;20026;-68
2024/03/11 06:34:58;;;;;;;41.08;21.15;;;9.30;75.30;;;;;;9182256;19;20081;-67
2024/03/11 06:38:05;;;;;;;46.03;20.92;;;9.30;75.30;;;;;;9179664;19;20479;-68
2024/03/11 06:41:11;;;;;;;40.95;20.50;;;9.30;75.30;;;;;;9180617;19;20010;-68
2024/03/11 06:44:18;;;;;;;46.15;22.23;;;9.30;75.30;;;;;;9179762;19;20026;-68
2024/03/11 06:47:33;;;;;;;45.35;21.35;;;9.30;75.40;;;;;;9180115;19;20014;-67
2024/03/11 06:50:44;;;;;;;46.63;22.13;;;9.20;75.30;;;;;;9180417;19;20487;-67
2024/03/11 06:53:49;;;;;;;45.58;19.92;;;9.20;75.30;;;;;;9173720;19;20029;-68
2024/03/11 06:56:57;;;;;;;45.45;19.17;;;9.20;75.40;;;;;;9175604;19;20006;-68
2024/03/11 07:00:02;;;;;;;42.15;20.48;;;9.20;76.00;;;;;;9178377;19;20017;-68
2024/03/11 07:03:10;;;;;;;40.95;19.88;;;9.20;75.40;;;;;;9177161;19;20018;-67
2024/03/11 07:06:19;;;;;;;51.20;20.45;;;9.30;75.50;;;;;;9177753;19;20029;-67
2024/03/11 07:09:27;;;;;;;39.03;20.33;;;9.30;75.50;;;;;;9176214;19;20007;-67
2024/03/11 07:12:33;;;;;;;40.38;20.42;;;9.20;75.40;;;;;;9175437;19;20018;-67
2024/03/11 07:15:42;;;;;;;40.17;19.17;;;9.20;75.40;;;;;;9178641;19;20042;-67
2024/03/11 07:18:50;;;;;;;37.30;20.73;;;9.20;75.40;;;;;;9178905;19;20010;-67
2024/03/11 07:22:01;;;;;;;37.33;19.55;;;9.20;75.50;;;;;;9179301;19;20038;-67
2024/03/11 07:25:09;;;;;;;41.38;20.23;;;9.20;75.50;;;;;;9179816;19;20018;-68
2024/03/11 07:28:17;;;;;;;43.60;20.95;;;9.20;75.50;;;;;;9178622;19;20017;-68
2024/03/11 07:31:23;;;;;;;42.17;20.60;;;9.20;75.50;;;;;;9178711;19;20021;-68
2024/03/11 07:34:31;;;;;;;42.15;19.65;;;9.20;75.50;;;;;;9175505;19;20614;-67
2024/03/11 07:37:40;;;;;;;37.83;19.27;;;9.20;75.50;;;;;;9176649;19;20015;-67
2024/03/11 07:40:48;;;;;;;46.97;20.35;;;9.20;75.50;;;;;;9178055;19;20023;-68
2024/03/11 07:43:53;;;;;;;38.63;19.45;;;9.20;75.60;;;;;;9176687;19;20010;-68
2024/03/11 07:47:01;;;;;;;43.55;20.10;;;9.20;75.60;;;;;;9176163;19;20010;-69
2024/03/11 07:50:09;;;;;;;39.30;19.50;;;9.30;75.60;;;;;;9178561;19;20047;-68
2024/03/11 07:53:20;;;;;;;47.65;20.52;;;9.30;75.70;;;;;;9175746;19;20014;-67
2024/03/11 07:56:26;;;;;;;37.40;18.75;;;9.30;75.70;;;;;;9171805;19;20007;-66
2024/03/11 07:59:33;;;;;;;38.22;19.05;;;9.20;75.70;;;;;;9177614;19;20022;-68
2024/03/11 08:02:39;;;;;;;36.20;18.70;;;9.20;75.70;;;;;;9178169;19;20022;-67
2024/03/11 08:05:46;;;;;;;39.95;20.60;;;9.30;75.80;;;;;;9177403;19;20011;-67
2024/03/11 08:08:54;;;;;;;46.83;20.40;;;9.20;75.80;;;;;;9175311;19;20022;-68
2024/03/11 08:12:02;;;;;;;41.17;18.52;;;9.20;75.80;;;;;;9178564;19;20019;-68
2024/03/11 08:15:10;;;;;;;42.03;20.67;;;9.20;75.80;;;;;;9177197;19;20022;-67
2024/03/11 08:18:18;;;;;;;40.97;19.75;;;9.20;75.80;;;;;;9177114;19;20029;-66
2024/03/11 08:21:24;;;;;;;42.65;19.05;;;9.20;75.90;;;;;;9177315;19;20390;-67
2024/03/11 08:24:36;;;;;;;43.65;21.00;;;9.20;75.90;;;;;;9176575;19;20025;-68
2024/03/11 08:27:42;;;;;;;39.15;19.38;;;9.30;76.00;;;;;;9175973;19;20010;-68
2024/03/11 08:30:49;;;;;;;42.17;19.23;;;9.20;76.60;;;;;;9176255;19;20022;-69
2024/03/11 08:33:55;;;;;;;42.80;21.75;;;9.20;76.00;;;;;;9174868;19;20015;-67
2024/03/11 08:37:03;;;;;;;42.50;20.73;;;9.20;76.00;;;;;;9175114;19;20014;-66
2024/03/11 08:40:14;;;;;;;43.95;20.88;;;9.20;76.10;;;;;;9177013;19;20017;-67
2024/03/11 08:43:22;;;;;;;45.03;20.77;;;9.20;76.20;;;;;;9175869;19;20578;-68
2024/03/11 08:46:29;;;;;;;46.15;20.35;;;9.30;76.20;;;;;;9173531;19;20549;-67
2024/03/11 08:49:37;;;;;;;45.17;21.35;;;9.20;76.30;;;;;;9175535;19;20029;-67
2024/03/11 08:52:44;;;;;;;45.08;20.92;;;9.20;76.20;;;;;;9175230;19;20031;-68
2024/03/11 08:55:54;;;;;;;45.65;20.77;;;9.30;76.90;;;;;;9174530;19;20586;-68
2024/03/11 08:59:00;;;;;;;45.00;21.23;;;9.30;76.40;;;;;;9170887;19;20017;-67
2024/03/11 09:02:10;;;;;;;44.42;21.05;;;9.30;76.40;;;;;;9174666;19;20160;-67
2024/03/11 09:05:17;;;;;;;39.35;19.15;;;9.30;76.40;;;;;;9172079;19;20055;-68
2024/03/11 09:08:27;;;;;;;42.90;20.30;;;9.30;76.40;;;;;;9173030;19;20018;-67
2024/03/11 09:11:37;;;;;;;43.42;20.58;;;9.30;76.40;;;;;;9175042;19;20018;-67
2024/03/11 09:14:47;;;;;;;46.50;20.48;;;9.30;76.50;;;;;;9172628;19;20022;-66
2024/03/11 09:17:54;;;;;;;40.72;20.15;;;9.30;76.50;;;;;;9172595;19;20831;-67
2024/03/11 09:21:03;;;;;;;44.63;20.50;;;9.30;76.50;;;;;;9174626;19;20019;-68
2024/03/11 09:24:11;;;;;;;40.67;21.13;;;9.30;76.50;;;;;;9174488;19;20011;-67
2024/03/11 09:27:22;;;;;;;40.45;19.85;;;9.30;76.50;;;;;;9172658;19;20021;-67
2024/03/11 09:30:28;;;;;;;39.55;20.10;;;9.30;76.60;;;;;;9172409;19;20018;-68
2024/03/11 09:33:38;;;;;;;41.08;19.35;;;9.30;76.50;;;;;;9171448;19;20017;-68
2024/03/11 09:36:44;;;;;;;37.42;19.15;;;9.30;76.60;;;;;;9173388;19;20019;-67
2024/03/11 09:39:52;;;;;;;38.53;19.73;;;9.30;76.60;;;;;;9174122;19;20014;-68
2024/03/11 09:43:01;;;;;;;39.67;21.30;;;9.30;76.60;;;;;;9174616;19;20021;-67
2024/03/11 09:46:11;;;;;;;41.25;19.00;;;9.30;76.80;;;;;;9172297;19;20010;-67
2024/03/11 09:49:19;;;;;;;38.47;19.83;;;9.30;76.70;;;;;;9172823;19;20011;-68
2024/03/11 09:52:28;;;;;;;41.47;20.00;;;9.30;76.70;;;;;;9173479;19;20026;-67
2024/03/11 09:55:34;;;;;;;45.65;20.52;;;9.30;77.40;;;;;;9169106;19;20021;-67
2024/03/11 09:58:50;;;;;;;45.30;20.13;;;9.40;76.90;;;;;;9161449;19;20490;-67
2024/03/11 10:01:59;;;;;;;36.55;18.75;;;9.40;76.90;;;;;;9169330;19;20059;-67
2024/03/11 10:05:08;;;;;;;42.22;20.25;;;9.40;76.90;;;;;;9173133;19;20373;-67
2024/03/11 10:08:14;;;;;;;42.60;20.42;;;9.40;77.10;;;;;;9172871;19;20059;-68
2024/03/11 10:11:24;;;;;;;41.35;20.02;;;9.40;77.00;;;;;;9173399;19;20018;-68
2024/03/11 10:14:35;;;;;;;43.78;18.17;;;9.50;77.20;;;;;;9170499;19;20022;-68
2024/03/11 10:17:43;;;;;;;46.20;20.83;;;9.50;77.20;;;;;;9171866;19;20017;-67
2024/03/11 10:20:57;;;;;;;37.22;21.15;;;9.50;77.20;;;;;;9173396;19;20014;-67
2024/03/11 10:24:05;;;;;;;42.20;21.42;;;9.50;77.20;;;;;;9173045;19;20058;-68
2024/03/11 10:27:22;;;;;;;40.78;20.65;;;9.60;77.20;;;;;;9172663;19;20482;-67
2024/03/11 10:30:32;;;;;;;42.17;20.42;;;9.60;77.30;;;;;;9181498;19;20479;-67
2024/03/11 10:33:39;;;;;;;38.58;19.30;;;9.60;77.30;;;;;;9180967;19;20018;-68
2024/03/11 10:36:47;;;;;;;44.50;20.88;;;9.60;77.30;;;;;;9180893;19;20019;-68
2024/03/11 10:40:00;;;;;;;42.28;20.95;;;9.70;77.30;;;;;;9180030;19;20495;-67
2024/03/11 10:43:24;;;;;;;38.65;19.35;;;9.70;77.40;;;;;;9180541;19;20369;-68
2024/03/11 10:46:39;;;;;;;37.95;20.67;;;9.70;77.30;;;;;;9180565;19;20074;-68
2024/03/11 10:49:49;;;;;;;39.88;20.27;;;9.80;77.40;;;;;;9180619;19;20018;-68
2024/03/11 10:52:58;;;;;;;43.58;20.50;;;9.80;77.40;;;;;;9180405;19;20018;-67
2024/03/11 10:56:19;;;;;;;38.83;20.83;;;9.80;77.40;;;;;;9177379;19;20018;-67
2024/03/11 10:59:29;;;;;;;41.22;20.65;;;9.80;77.40;;;;;;9179377;19;20014;-68
2024/03/11 11:02:41;;;;;;;43.45;21.23;;;9.90;77.50;;;;;;9178266;19;20014;-69
2024/03/11 11:05:51;;;;;;;40.90;20.83;;;9.90;77.50;;;;;;9179851;19;20010;-69
2024/03/11 11:08:58;;;;;;;41.28;21.55;;;9.90;77.40;;;;;;9180177;19;20015;-68
2024/03/11 11:12:05;;;;;;;44.40;21.98;;;9.90;77.40;;;;;;9179190;19;20006;-68
2024/03/11 11:15:14;;;;;;;52.20;22.35;;;9.90;78.00;;;;;;9177504;19;20007;-69
2024/03/11 11:18:24;;;;;;;41.45;20.70;;;10.00;77.50;;;;;;9178967;19;20011;-68
2024/03/11 11:21:33;;;;;;;40.17;21.13;;;10.00;77.50;;;;;;9179048;19;20025;-68
2024/03/11 11:24:42;;;;;;;44.95;21.40;;;10.00;77.50;;;;;;9175737;19;20319;-68
2024/03/11 11:27:51;;;;;;;76.13;24.52;;;10.00;77.40;;;;;;9176440;19;20018;-68
2024/03/11 11:31:11;;;;;;;46.20;20.80;;;10.00;77.40;;;;;;9179872;19;20053;-68
2024/03/11 11:34:43;;;;;;;45.53;21.83;;;10.10;77.60;;;;;;9178256;19;20022;-68
2024/03/11 11:37:49;;;;;;;47.60;21.55;;;10.10;77.50;;;;;;9176427;19;20603;-69
2024/03/11 11:40:57;;;;;;;39.58;20.92;;;10.10;77.40;;;;;;9175497;19;20018;-69
2024/03/11 11:44:03;;;;;;;46.50;21.33;;;10.20;77.50;;;;;;9179358;19;20059;-69
2024/03/11 11:47:13;;;;;;;38.47;21.08;;;10.20;77.50;;;;;;9177403;19;20042;-69
2024/03/11 11:50:38;;;;;;;42.70;20.48;;;10.20;77.50;;;;;;9178222;19;20006;-69
2024/03/11 11:53:45;;;;;;;43.05;22.40;;;10.20;77.50;;;;;;9175281;19;20010;-68
2024/03/11 11:57:12;;;;;;;51.45;22.92;;;10.20;77.40;;;;;;9173808;19;20014;-69
2024/03/11 12:00:20;;;;;;;49.55;23.27;;;10.20;77.50;;;;;;9177435;19;20015;-69
2024/03/11 12:03:30;;;;;;;42.55;22.10;;;10.20;77.40;;;;;;9177609;19;20017;-68
2024/03/11 12:06:42;;;;;;;51.22;23.13;;;10.20;77.40;;;;;;9176093;19;20018;-69
2024/03/11 12:09:51;;;;;;;48.42;21.55;;;10.30;77.50;;;;;;9177214;19;20022;-69
2024/03/11 12:13:00;;;;;;;39.65;20.90;;;10.30;77.50;;;;;;9177125;19;20010;-68
2024/03/11 12:16:08;;;;;;;41.83;20.73;;;10.30;77.50;;;;;;9175491;19;20027;-68
2024/03/11 12:19:16;;;;;;;39.47;21.10;;;10.30;77.50;;;;;;9176780;19;20018;-73
2024/03/11 12:22:26;;;;;;;44.53;20.73;;;10.30;77.50;;;;;;9176919;19;20014;-67
2024/03/11 12:25:36;;;;;;;36.20;20.10;;;10.30;77.50;;;;;;9176962;19;20018;-67
2024/03/11 12:28:58;;;;;;;43.15;22.80;;;10.30;77.50;;;;;;9176424;19;20014;-66
2024/03/11 12:32:11;;;;;;;47.38;22.17;;;10.40;77.60;;;;;;9176473;19;20018;-66
2024/03/11 12:35:18;;;;;;;45.92;21.88;;;10.30;77.50;;;;;;9173448;19;20032;-66
2024/03/11 12:38:29;;;;;;;45.33;22.10;;;10.40;77.60;;;;;;9173577;19;20014;-66
2024/03/11 12:41:41;;;;;;;40.78;21.85;;;10.40;77.60;;;;;;9171930;19;20010;-66
2024/03/11 12:44:57;;;;;;;43.65;21.27;;;10.40;77.60;;;;;;9174165;19;20026;-66
2024/03/11 12:48:06;;;;;;;38.63;21.45;;;10.40;78.30;;;;;;9175963;19;20074;-65
2024/03/11 12:51:20;;;;;;;43.78;22.10;;;10.40;77.60;;;;;;9174657;19;20018;-66
2024/03/11 12:54:29;;;;;;;42.38;21.90;;;10.40;77.60;;;;;;9165559;19;20050;-66
2024/03/11 12:57:38;;;;;;;43.53;22.55;;;10.40;77.60;;;;;;9165589;19;20483;-66
2024/03/11 13:00:45;;;;;;;42.95;22.30;;;10.40;77.60;;;;;;9174328;19;20051;-66
2024/03/11 13:03:57;;;;;;;43.78;21.85;;;10.40;77.60;;;;;;9174819;19;20011;-66
2024/03/11 13:07:05;;;;;;;46.28;23.20;;;10.40;77.60;;;;;;9173362;19;20067;-66
2024/03/11 13:10:20;;;;;;;45.38;22.40;;;10.50;77.70;;;;;;9174504;19;20448;-66
2024/03/11 13:13:25;;;;;;;39.97;21.30;;;10.50;77.70;;;;;;9174776;19;20119;-65
2024/03/11 13:16:33;;;;;;;47.08;23.67;;;10.50;77.70;;;;;;9172055;19;20014;-66
2024/03/11 13:19:39;;;;;;;49.85;23.58;;;10.50;77.70;;;;;;9175401;19;20066;-66
2024/03/11 13:22:47;;;;;;;48.10;24.10;;;10.50;77.70;;;;;;9174867;19;20372;-65
2024/03/11 13:25:55;;;;;;;51.10;24.77;;;10.50;77.70;;;;;;9173815;19;20134;-65
2024/03/11 13:29:02;;;;;;;55.17;25.23;;;10.50;77.80;;;;;;9174613;19;20023;-65
2024/03/11 13:32:12;;;;;;;49.22;24.98;;;10.60;77.70;;;;;;9173612;19;20464;-66
2024/03/11 13:35:20;;;;;;;49.67;25.63;;;10.60;77.80;;;;;;9172950;19;20051;-65
2024/03/11 13:38:26;;;;;;;50.03;24.77;;;10.50;77.70;;;;;;9171897;19;20026;-66
2024/03/11 13:41:38;;;;;;;54.95;26.92;;;10.60;77.70;;;;;;9172814;19;20018;-66
2024/03/11 13:44:44;;;;;;;54.22;26.73;;;10.50;77.70;;;;;;9169941;19;20018;-65
2024/03/11 13:47:51;;;;;;;54.92;25.30;;;10.60;77.80;;;;;;9171782;19;20029;-66
2024/03/11 13:50:58;;;;;;;56.67;26.40;;;10.60;77.80;;;;;;9171201;19;20484;-67
2024/03/11 13:54:05;;;;;;;56.20;26.08;;;10.60;77.80;;;;;;9171271;19;20073;-65
2024/03/11 13:57:16;;;;;;;48.00;26.10;;;10.60;77.90;;;;;;9168635;19;20821;-66
2024/03/11 14:00:28;;;;;;;50.53;25.13;;;10.60;77.80;;;;;;9172905;19;20041;-66
2024/03/11 14:03:33;;;;;;;45.95;24.45;;;10.60;77.90;;;;;;9175853;19;20006;-66
2024/03/11 14:06:41;;;;;;;52.95;25.55;;;10.70;77.90;;;;;;9181070;19;20015;-66
2024/03/11 14:09:49;;;;;;;60.25;27.08;;;10.70;77.90;;;;;;9183790;19;20352;-65
2024/03/11 14:13:00;;;;;;;52.83;25.77;;;10.70;77.90;;;;;;9182376;19;20360;-65
2024/03/11 14:16:07;;;;;;;49.00;24.10;;;10.70;77.90;;;;;;9182497;19;20014;-66
2024/03/11 14:19:17;;;;;;;52.72;25.25;;;10.70;77.90;;;;;;9185120;19;20345;-65
2024/03/11 14:22:26;;;;;;;48.88;23.90;;;10.70;77.90;;;;;;9185349;19;20022;-66
2024/03/11 14:25:37;;;;;;;45.38;25.08;;;10.70;77.90;;;;;;9181670;19;20011;-66
2024/03/11 14:28:46;;;;;;;47.78;24.83;;;10.70;77.90;;;;;;9181300;19;20026;-66
2024/03/11 14:31:54;;;;;;;53.22;25.02;;;10.70;77.90;;;;;;9178814;19;20017;-66
2024/03/11 14:34:59;;;;;;;52.13;24.73;;;10.70;77.90;;;;;;9179447;19;20039;-67
2024/03/11 14:38:08;;;;;;;50.22;25.00;;;10.80;78.00;;;;;;9174727;19;20018;-66
2024/03/11 14:41:22;;;;;;;49.38;25.20;;;10.80;78.00;;;;;;9178222;19;20014;-66
2024/03/11 14:44:32;;;;;;;46.97;24.27;;;10.80;78.00;;;;;;9177683;19;20014;-66
2024/03/11 14:47:38;;;;;;;45.85;24.45;;;10.80;78.00;;;;;;9181055;19;20089;-66
2024/03/11 14:50:48;;;;;;;47.53;24.45;;;10.80;78.00;;;;;;9178787;19;20014;-66
2024/03/11 14:53:56;;;;;;;49.80;24.88;;;10.90;78.10;;;;;;9180972;19;20018;-66
2024/03/11 14:57:05;;;;;;;48.97;25.17;;;10.90;78.00;;;;;;9172583;19;20483;-66
2024/03/11 15:00:20;;;;;;;45.58;23.80;;;10.90;78.00;;;;;;9178737;19;20015;-66
2024/03/11 15:03:28;;;;;;;45.67;23.95;;;10.90;78.00;;;;;;9179616;19;20667;-66
2024/03/11 15:06:35;;;;;;;48.25;25.20;;;10.90;78.00;;;;;;9178767;19;20014;-66
2024/03/11 15:09:42;;;;;;;46.60;23.73;;;10.90;78.00;;;;;;9177180;19;20475;-66
2024/03/11 15:12:48;;;;;;;49.65;26.65;;;10.90;78.10;;;;;;9178782;19;20021;-66
2024/03/11 15:15:58;;;;;;;47.90;23.98;;;10.90;78.10;;;;;;9174681;19;20057;-66
2024/03/11 15:19:04;;;;;;;48.35;24.88;;;10.90;78.10;;;;;;9179282;19;20018;-66
2024/03/11 15:22:13;;;;;;;48.28;24.08;;;10.90;78.00;;;;;;9175622;19;20024;-66
2024/03/11 15:25:24;;;;;;;46.22;23.63;;;11.00;78.10;;;;;;9179377;19;20042;-66
2024/03/11 15:28:32;;;;;;;44.55;22.27;;;11.00;78.10;;;;;;9177379;19;20360;-66
2024/03/11 15:31:43;;;;;;;47.50;22.90;;;11.00;78.10;;;;;;9178075;19;20022;-66
2024/03/11 15:34:51;;;;;;;44.63;22.42;;;11.00;78.10;;;;;;9175706;19;20010;-66
2024/03/11 15:37:56;;;;;;;45.13;22.08;;;11.00;78.10;;;;;;9172460;19;20019;-66
2024/03/11 15:41:05;;;;;;;45.38;22.65;;;11.00;78.10;;;;;;9176579;19;20010;-65
2024/03/11 15:44:10;;;;;;;43.92;22.75;;;11.00;78.10;;;;;;9178772;19;20014;-66
2024/03/11 15:47:21;;;;;;;44.47;22.27;;;11.00;78.10;;;;;;9176057;19;20014;-66
2024/03/11 15:50:29;;;;;;;40.03;21.45;;;11.00;78.10;;;;;;9178886;19;20038;-66
2024/03/11 15:53:37;;;;;;;42.47;20.92;;;11.00;78.10;;;;;;9178541;19;20014;-66
2024/03/11 15:56:44;;;;;;;41.90;21.13;;;11.10;78.20;;;;;;9171185;19;20047;-66
2024/03/11 15:59:52;;;;;;;41.78;21.65;;;11.10;78.20;;;;;;9172975;19;20014;-66
2024/03/11 16:03:01;;;;;;;39.38;21.15;;;11.10;78.20;;;;;;9177060;19;20014;-66